Time;durP1;ratioP1;P1;durP2;ratioP2;P2;SDS_P1;SDS_P2;PMS_P1;PMS_P2;Temp;Humidity;BMP_temperature;BMP_pressure;BME280_temperature;BME280_humidity;BME280_pressure;Samples;Min_cycle;Max_cycle;Signal;HPM_P1;HPM_P2
2023/04/05 00:00:44;;;;;;;0.77;0.63;;;;;;;-0.76;77.08;102447.88;10539225;28;20043;-73
2023/04/05 00:05:48;;;;;;;0.20;0.20;;;;;;;-0.83;77.49;102440.38;10554782;28;20518;-73
2023/04/05 00:10:50;;;;;;;0.52;0.52;;;;;;;-0.97;77.35;102445.19;10547794;28;20430;-74
2023/04/05 00:15:52;;;;;;;0.20;0.20;;;;;;;-1.08;77.74;102446.78;10530325;28;20036;-74
2023/04/05 00:20:53;;;;;;;0.50;0.20;;;;;;;-1.12;77.60;102441.22;10534560;28;20049;-74
2023/04/05 00:25:55;;;;;;;0.70;0.45;;;;;;;-1.12;78.21;102436.09;10553008;28;20348;-74
2023/04/05 00:30:56;;;;;;;0.57;0.40;;;;;;;-1.14;78.11;102427.31;10553599;28;20043;-74
2023/04/05 00:36:08;;;;;;;0.90;0.70;;;;;;;-1.17;78.52;102427.97;10551516;28;20031;-74
2023/04/05 00:41:11;;;;;;;0.50;0.50;;;;;;;-1.19;78.63;102420.88;10527316;28;20132;-73
2023/04/05 00:46:13;;;;;;;0.22;0.17;;;;;;;-1.27;78.93;102415.94;10561050;28;20089;-73
2023/04/05 00:51:16;;;;;;;0.10;0.10;;;;;;;-1.37;78.92;102413.28;10525222;28;20151;-73
2023/04/05 00:56:20;;;;;;;0.50;0.47;;;;;;;-1.44;78.90;102416.06;10520856;28;20085;-74
2023/04/05 01:01:25;;;;;;;0.22;0.22;;;;;;;-1.51;79.39;102418.84;10542778;28;20051;-74
2023/04/05 01:06:49;;;;;;;0.73;0.40;;;;;;;-1.54;79.06;102418.56;10519574;28;20092;-74
2023/04/05 01:11:55;;;;;;;0.10;0.10;;;;;;;-1.63;79.38;102414.38;10542875;27;20063;-75
2023/04/05 01:16:57;;;;;;;0.90;0.30;;;;;;;-1.66;79.67;102416.66;10541954;28;20039;-76
2023/04/05 01:22:36;;;;;;;1.77;0.85;;;;;;;-1.69;79.51;102411.22;10551747;28;20043;-74
2023/04/05 01:27:51;;;;;;;1.08;0.95;;;;;;;-1.75;79.72;102408.09;10506694;28;20428;-74
2023/04/05 01:33:29;;;;;;;0.80;0.70;;;;;;;-1.83;79.66;102409.03;10543204;28;20067;-74
2023/04/05 01:38:32;;;;;;;0.30;0.30;;;;;;;-1.87;79.95;102402.72;10537690;27;20047;-74
2023/04/05 01:43:33;;;;;;;1.10;0.40;;;;;;;-1.89;79.88;102405.91;10512211;28;20057;-74
2023/04/05 01:48:35;;;;;;;0.20;0.20;;;;;;;-1.94;79.92;102404.59;10552331;28;20105;-74
2023/04/05 01:53:37;;;;;;;1.65;0.50;;;;;;;-2.00;80.16;102400.69;10514919;28;20044;-74
2023/04/05 01:58:38;;;;;;;1.17;0.68;;;;;;;-2.03;80.35;102399.47;10547458;28;20513;-76
2023/04/05 02:03:40;;;;;;;0.10;0.10;;;;;;;-2.09;80.29;102389.53;10514266;28;20043;-76
2023/04/05 02:08:42;;;;;;;0.28;0.20;;;;;;;-2.12;80.38;102384.13;10523070;28;20434;-74
2023/04/05 02:13:44;;;;;;;0.32;0.32;;;;;;;-2.16;80.45;102384.63;10548049;28;20043;-74
2023/04/05 02:18:49;;;;;;;1.00;0.90;;;;;;;-2.21;80.90;102383.25;10547143;28;20039;-74
2023/04/05 02:23:52;;;;;;;0.30;0.30;;;;;;;-2.27;80.96;102373.31;10529866;28;20460;-74
2023/04/05 02:28:53;;;;;;;1.33;0.68;;;;;;;-2.27;80.83;102380.13;10530177;28;20040;-74
2023/04/05 02:33:56;;;;;;;1.00;0.82;;;;;;;-2.27;81.39;102372.44;10521103;28;20048;-74
2023/04/05 02:38:58;;;;;;;0.20;0.20;;;;;;;-2.32;81.86;102378.00;10522049;27;20275;-75
2023/04/05 02:44:00;;;;;;;0.10;0.10;;;;;;;-2.33;81.69;102372.75;10524711;28;20040;-74
2023/04/05 02:49:04;;;;;;;0.35;0.35;;;;;;;-2.32;81.88;102370.31;10524362;28;20516;-74
2023/04/05 02:54:08;;;;;;;0.80;0.60;;;;;;;-2.41;81.97;102361.75;10511286;28;20040;-74
2023/04/05 02:59:12;;;;;;;0.55;0.40;;;;;;;-2.44;82.01;102363.16;10512379;28;20094;-74
2023/04/05 03:04:16;;;;;;;1.27;0.55;;;;;;;-2.49;82.37;102365.28;10496425;28;20037;-74
2023/04/05 03:09:17;;;;;;;0.10;0.10;;;;;;;-2.53;82.12;102363.16;10515406;28;20051;-74
2023/04/05 03:14:23;;;;;;;1.10;1.00;;;;;;;-2.53;81.95;102358.03;10507960;28;20528;-74
2023/04/05 03:19:26;;;;;;;0.50;0.50;;;;;;;-2.55;82.33;102367.22;10495596;28;20691;-75
2023/04/05 03:24:34;;;;;;;0.40;0.40;;;;;;;-2.60;82.39;102364.22;10492701;28;20060;-74
2023/04/05 03:29:37;;;;;;;0.63;0.60;;;;;;;-2.59;82.67;102354.91;10514525;28;20037;-74
2023/04/05 03:34:50;;;;;;;0.40;0.40;;;;;;;-2.62;82.70;102357.16;10507974;28;20041;-74
2023/04/05 03:39:53;;;;;;;1.05;0.63;;;;;;;-2.68;82.68;102355.81;10533401;28;20050;-74
2023/04/05 03:44:55;;;;;;;0.40;0.40;;;;;;;-2.78;82.96;102360.81;10543484;28;20415;-74
2023/04/05 03:49:57;;;;;;;0.68;0.68;;;;;;;-2.85;82.98;102356.75;10535349;28;20101;-75
2023/04/05 03:54:58;;;;;;;0.20;0.20;;;;;;;-2.85;82.93;102348.19;10535316;28;20561;-76
2023/04/05 04:00:12;;;;;;;0.20;0.20;;;;;;;-2.86;82.99;102354.06;10544137;28;20546;-76
2023/04/05 04:05:16;;;;;;;0.50;0.50;;;;;;;-2.90;82.94;102341.69;10520811;28;20125;-76
2023/04/05 04:10:21;;;;;;;1.10;1.00;;;;;;;-2.95;83.05;102340.34;10532307;28;20058;-76
2023/04/05 04:15:26;;;;;;;0.65;0.65;;;;;;;-2.98;83.32;102350.31;10522426;28;20039;-76
2023/04/05 04:20:46;;;;;;;0.68;0.68;;;;;;;-3.01;83.23;102350.91;10552876;28;20035;-76
2023/04/05 04:26:10;;;;;;;0.73;0.73;;;;;;;-3.07;83.50;102343.53;10553790;28;20062;-76
2023/04/05 04:31:20;;;;;;;1.35;1.08;;;;;;;-3.16;83.40;102337.50;10541583;28;20052;-76
2023/04/05 04:36:59;;;;;;;8.48;1.13;;;;;;;-3.18;83.63;102346.72;10541338;28;20048;-76
2023/04/05 04:42:37;;;;;;;0.45;0.38;;;;;;;-3.23;83.70;102348.84;10517690;28;20059;-76
2023/04/05 04:47:48;;;;;;;0.40;0.40;;;;;;;-3.27;83.85;102346.72;10536559;28;20051;-76
2023/04/05 04:53:06;;;;;;;0.57;0.40;;;;;;;-3.27;83.92;102350.94;10541912;28;20135;-76
2023/04/05 04:58:10;;;;;;;0.68;0.52;;;;;;;-3.25;83.92;102357.13;10551695;28;20054;-76
2023/04/05 05:03:12;;;;;;;0.52;0.50;;;;;;;-3.28;83.93;102359.38;10532581;28;20439;-75
2023/04/05 05:08:14;;;;;;;0.20;0.20;;;;;;;-3.26;84.00;102353.66;10544513;28;20599;-76
2023/04/05 05:13:16;;;;;;;0.93;0.63;;;;;;;-3.23;84.25;102355.59;10534581;28;20140;-76
2023/04/05 05:18:18;;;;;;;2.72;0.80;;;;;;;-3.28;84.28;102352.59;10534823;28;20044;-75
2023/04/05 05:23:20;;;;;;;1.98;0.32;;;;;;;-3.30;84.26;102346.44;10550707;28;20059;-75
2023/04/05 05:28:24;;;;;;;0.80;0.47;;;;;;;-3.27;84.54;102350.94;10518183;28;20101;-77
2023/04/05 05:33:25;;;;;;;0.40;0.30;;;;;;;-3.22;84.55;102349.72;10544265;28;20048;-76
2023/04/05 05:38:27;;;;;;;1.27;1.00;;;;;;;-3.17;84.22;102335.69;10548275;28;20067;-76
2023/04/05 05:43:29;;;;;;;0.40;0.40;;;;;;;-3.11;84.67;102337.97;10539368;28;20040;-76
2023/04/05 05:48:32;;;;;;;0.98;0.88;;;;;;;-2.95;84.68;102343.81;10522747;28;20047;-76
2023/04/05 05:53:33;;;;;;;2.58;0.73;;;;;;;-2.91;84.70;102347.56;10528967;28;20052;-76
2023/04/05 05:58:35;;;;;;;0.32;0.32;;;;;;;-2.88;84.36;102337.63;10529191;28;20917;-76
2023/04/05 06:03:37;;;;;;;0.80;0.73;;;;;;;-2.79;84.98;102343.63;10521511;28;20122;-76
2023/04/05 06:08:39;;;;;;;1.23;0.52;;;;;;;-2.69;85.20;102342.84;10522541;27;20052;-76
2023/04/05 06:13:41;;;;;;;0.65;0.65;;;;;;;-2.37;85.05;102355.25;10490770;28;20036;-76
2023/04/05 06:18:42;;;;;;;1.45;0.77;;;;;;;-2.16;85.46;102346.13;10537061;28;20495;-76
2023/04/05 06:23:44;;;;;;;0.85;0.75;;;;;;;-1.90;85.43;102345.06;10524601;28;20526;-76
2023/04/05 06:28:46;;;;;;;0.63;0.63;;;;;;;-1.72;85.50;102335.56;10545250;28;20039;-76
2023/04/05 06:33:48;;;;;;;0.90;0.77;;;;;;;-1.54;85.32;102347.50;10558684;28;20531;-76
2023/04/05 06:38:51;;;;;;;7.15;3.13;;;;;;;-1.26;85.20;102340.63;10522758;27;20824;-76
2023/04/05 06:43:55;;;;;;;1.75;0.75;;;;;;;-0.96;84.65;102339.00;10538621;28;20036;-76
2023/04/05 06:48:58;;;;;;;1.05;0.75;;;;;;;-0.71;83.80;102338.56;10547301;28;20135;-75
2023/04/05 06:54:00;;;;;;;0.45;0.40;;;;;;;-0.46;82.87;102340.72;10538592;28;20047;-76
2023/04/05 06:59:02;;;;;;;0.25;0.25;;;;;;;-0.18;82.28;102338.84;10531092;28;20443;-76
2023/04/05 07:04:04;;;;;;;0.45;0.45;;;;;;;0.06;81.60;102332.28;10546063;28;20070;-75
2023/04/05 07:09:06;;;;;;;0.50;0.50;;;;;;;0.29;80.62;102333.31;10529914;28;20407;-74
2023/04/05 07:14:07;;;;;;;0.38;0.35;;;;;;;0.84;80.24;102330.13;10521405;28;20503;-74
2023/04/05 07:19:09;;;;;;;1.35;0.75;;;;;;;2.89;79.42;102321.66;10520700;28;20040;-74
2023/04/05 07:24:10;;;;;;;1.63;1.13;;;;;;;4.88;76.72;102318.81;10519533;28;20518;-74
2023/04/05 07:29:12;;;;;;;0.63;0.63;;;;;;;4.88;76.72;102318.81;10501886;28;20050;-75
2023/04/05 07:34:13;;;;;;;1.08;0.68;;;;;;;6.74;69.46;102321.50;10536963;28;20055;-75
2023/04/05 07:39:15;;;;;;;1.88;1.08;;;;;;;6.74;69.46;102321.50;10528088;28;20139;-74
2023/04/05 07:44:17;;;;;;;3.25;1.33;;;;;;;7.97;64.52;102325.59;10519153;28;20052;-75
2023/04/05 07:49:23;;;;;;;2.20;1.20;;;;;;;7.97;64.52;102325.59;10534615;28;20529;-74
2023/04/05 07:54:25;;;;;;;2.00;1.38;;;;;;;7.42;61.64;102320.94;10519981;28;20051;-74
2023/04/05 07:59:27;;;;;;;3.53;1.17;;;;;;;7.62;61.44;102318.50;10554907;28;20511;-75
2023/04/05 08:04:29;;;;;;;2.17;1.42;;;;;;;8.16;60.51;102318.72;10527409;28;20531;-74
2023/04/05 08:09:30;;;;;;;5.35;2.05;;;;;;;8.65;59.33;102309.91;10526536;28;20055;-74
2023/04/05 08:14:32;;;;;;;2.50;1.33;;;;;;;9.05;58.03;102321.38;10540254;28;20044;-74
2023/04/05 08:19:33;;;;;;;3.78;1.30;;;;;;;8.57;56.63;102317.34;10542020;28;20040;-74
2023/04/05 08:24:35;;;;;;;3.45;1.25;;;;;;;8.97;56.33;102314.06;10532800;28;20782;-75
2023/04/05 08:29:37;;;;;;;2.67;1.23;;;;;;;8.59;54.50;102313.09;10548348;28;20089;-73
2023/04/05 08:34:38;;;;;;;2.53;1.48;;;;;;;9.29;53.85;102311.19;10533915;28;20036;-73
2023/04/05 08:39:40;;;;;;;2.17;1.13;;;;;;;9.29;53.85;102311.19;10544454;28;20428;-74
2023/04/05 08:44:43;;;;;;;2.45;1.05;;;;;;;9.78;51.23;102309.91;10541915;28;20499;-73
2023/04/05 08:49:45;;;;;;;1.50;0.70;;;;;;;9.41;50.39;102310.84;10543783;28;20055;-74
2023/04/05 08:54:46;;;;;;;2.45;0.95;;;;;;;10.01;50.12;102300.47;10534735;28;20046;-73
2023/04/05 08:59:51;;;;;;;4.72;1.17;;;;;;;9.31;47.86;102297.38;10533699;28;20150;-74
2023/04/05 09:04:53;;;;;;;1.23;0.80;;;;;;;9.67;47.42;102296.38;10532906;28;20039;-74
2023/04/05 09:09:58;;;;;;;2.92;1.27;;;;;;;9.98;46.59;102301.22;10539573;28;20051;-74
2023/04/05 09:15:00;;;;;;;4.72;1.40;;;;;;;10.48;45.76;102293.78;10526719;28;20527;-74
2023/04/05 09:20:01;;;;;;;1.13;0.60;;;;;;;9.85;44.90;102294.56;10540592;28;20542;-73
2023/04/05 09:25:03;;;;;;;1.25;0.73;;;;;;;10.38;45.01;102300.34;10542694;28;20039;-74
2023/04/05 09:30:20;;;;;;;1.65;1.00;;;;;;;10.34;44.52;102295.78;10534610;28;20078;-74
2023/04/05 09:35:27;;;;;;;0.50;0.50;;;;;;;9.45;43.98;102297.09;10541007;28;20311;-74
2023/04/05 09:40:45;;;;;;;1.70;0.75;;;;;;;9.71;43.92;102300.88;10543692;28;20504;-74
2023/04/05 09:45:53;;;;;;;3.00;1.25;;;;;;;9.85;43.52;102293.69;10521099;28;20032;-74
2023/04/05 09:51:04;;;;;;;1.40;0.90;;;;;;;10.24;43.57;102293.63;10542427;28;20122;-74
2023/04/05 09:56:13;;;;;;;1.13;0.75;;;;;;;10.81;43.09;102288.13;10542102;28;20096;-74
2023/04/05 10:01:15;;;;;;;1.55;0.70;;;;;;;11.20;42.75;102284.38;10540415;28;20048;-74
2023/04/05 10:06:20;;;;;;;1.45;0.82;;;;;;;11.35;42.32;102277.13;10548425;28;20486;-74
2023/04/05 10:11:22;;;;;;;1.65;0.85;;;;;;;11.28;41.63;102272.47;10540536;28;20047;-74
2023/04/05 10:16:27;;;;;;;2.10;0.98;;;;;;;11.24;41.44;102274.06;10525983;28;20423;-75
2023/04/05 10:21:32;;;;;;;1.33;0.90;;;;;;;11.24;41.18;102266.19;10522605;28;20040;-74
2023/04/05 10:27:18;;;;;;;1.77;1.08;;;;;;;11.47;41.05;102267.06;10530192;28;20093;-74
2023/04/05 10:32:33;;;;;;;2.38;0.88;;;;;;;11.83;40.90;102261.38;10483538;28;20044;-76
2023/04/05 10:37:47;;;;;;;2.38;0.85;;;;;;;12.03;40.72;102253.34;10540071;28;20050;-74
2023/04/05 10:42:49;;;;;;;2.83;1.13;;;;;;;11.85;40.19;102248.31;10533889;28;20122;-75
2023/04/05 10:47:56;;;;;;;2.15;1.00;;;;;;;12.03;39.62;102237.59;10529974;28;20131;-75
2023/04/05 10:52:59;;;;;;;2.53;1.10;;;;;;;12.01;39.65;102223.53;10519268;28;20040;-75
2023/04/05 10:58:01;;;;;;;0.50;0.50;;;;;;;11.21;39.64;102239.84;10522110;28;20071;-75
2023/04/05 11:03:03;;;;;;;1.75;0.95;;;;;;;10.70;39.53;102237.00;10538087;27;20100;-77
2023/04/05 11:08:06;;;;;;;1.40;0.88;;;;;;;11.11;39.94;102224.66;10497679;28;20382;-75
2023/04/05 11:13:09;;;;;;;2.00;0.85;;;;;;;11.11;39.56;102224.66;10500955;28;20067;-75
2023/04/05 11:18:23;;;;;;;4.40;1.02;;;;;;;10.76;39.51;102219.81;10515284;28;20044;-75
2023/04/05 11:23:25;;;;;;;1.30;0.90;;;;;;;11.04;39.35;102210.38;10535581;28;20040;-77
2023/04/05 11:28:40;;;;;;;2.85;0.95;;;;;;;11.17;39.35;102208.22;10507273;28;20063;-76
2023/04/05 11:33:47;;;;;;;1.13;0.88;;;;;;;11.21;39.20;102204.88;10522085;28;20423;-77
2023/04/05 11:39:22;;;;;;;2.03;0.95;;;;;;;10.67;38.92;102195.88;10485744;28;20045;-77
2023/04/05 11:44:24;;;;;;;1.85;1.05;;;;;;;10.98;39.31;102197.06;10476730;28;20048;-78
2023/04/05 11:49:27;;;;;;;3.20;0.95;;;;;;;10.16;39.32;102196.41;10520856;28;20036;-76
2023/04/05 11:54:32;;;;;;;1.50;0.93;;;;;;;9.84;39.88;102193.34;10537809;28;20059;-75
2023/04/05 11:59:34;;;;;;;3.13;0.80;;;;;;;9.66;39.93;102182.97;10549833;28;20031;-76
2023/04/05 12:04:37;;;;;;;1.23;0.57;;;;;;;10.15;39.89;102175.41;10523299;28;20049;-75
2023/04/05 12:10:12;;;;;;;1.35;0.70;;;;;;;10.24;39.85;102163.59;10504013;28;20062;-76
2023/04/05 12:15:17;;;;;;;0.85;0.50;;;;;;;10.84;39.83;102167.72;10523350;28;20056;-74
2023/04/05 12:20:24;;;;;;;1.77;0.85;;;;;;;10.92;39.80;102160.13;10503923;28;20511;-75
2023/04/05 12:25:25;;;;;;;2.55;0.80;;;;;;;10.64;38.88;102156.44;10505986;28;20052;-76
2023/04/05 12:30:34;;;;;;;1.40;1.00;;;;;;;10.64;38.72;102152.94;10523230;28;20089;-76
2023/04/05 12:35:35;;;;;;;1.48;0.77;;;;;;;10.91;39.08;102155.72;10508043;28;20044;-76
2023/04/05 12:40:39;;;;;;;1.17;0.40;;;;;;;10.52;38.91;102148.13;10529272;28;20044;-77
2023/04/05 12:45:41;;;;;;;1.15;0.60;;;;;;;10.40;38.97;102144.22;10530631;28;20119;-75
2023/04/05 12:50:47;;;;;;;1.02;0.70;;;;;;;11.00;38.95;102148.19;10530933;28;20055;-76
2023/04/05 12:55:52;;;;;;;1.33;0.70;;;;;;;11.03;38.13;102131.69;10525183;28;20052;-75
2023/04/05 13:00:54;;;;;;;1.45;0.77;;;;;;;11.17;38.19;102119.09;10530553;28;20047;-75
2023/04/05 13:05:57;;;;;;;1.05;0.93;;;;;;;11.39;38.31;102124.25;10525323;28;20032;-75
2023/04/05 13:10:59;;;;;;;1.98;0.93;;;;;;;11.68;38.15;102112.16;10510673;28;20043;-74
2023/04/05 13:16:01;;;;;;;4.32;1.23;;;;;;;11.92;37.61;102112.91;10525046;28;20067;-75
2023/04/05 13:21:06;;;;;;;2.58;0.90;;;;;;;11.66;37.61;102099.81;10526717;28;20459;-75
2023/04/05 13:26:08;;;;;;;2.13;1.17;;;;;;;11.76;37.39;102095.78;10508252;28;20071;-75
2023/04/05 13:31:09;;;;;;;1.95;1.13;;;;;;;11.17;36.96;102093.78;10525990;28;20040;-75
2023/04/05 13:36:13;;;;;;;2.58;1.23;;;;;;;10.68;37.41;102092.88;10507924;28;20040;-75
2023/04/05 13:41:15;;;;;;;1.38;0.90;;;;;;;10.31;37.22;102075.72;10524992;28;20076;-75
2023/04/05 13:46:16;;;;;;;2.25;0.90;;;;;;;10.42;37.88;102087.53;10525182;28;20090;-74
2023/04/05 13:51:18;;;;;;;1.75;0.88;;;;;;;10.31;37.98;102073.09;10507788;28;20047;-72
2023/04/05 13:56:20;;;;;;;1.10;0.80;;;;;;;10.26;38.07;102072.91;10529827;28;20036;-73
2023/04/05 14:01:21;;;;;;;4.40;1.17;;;;;;;10.14;38.20;102058.47;10527900;28;20048;-75
2023/04/05 14:06:23;;;;;;;0.65;0.65;;;;;;;10.12;38.40;102063.66;10526517;28;20399;-77
2023/04/05 14:11:25;;;;;;;4.10;1.30;;;;;;;10.09;38.49;102051.31;10523371;28;20043;-75
2023/04/05 14:16:27;;;;;;;2.45;1.00;;;;;;;10.00;39.01;102053.59;10521893;28;20044;-74
2023/04/05 14:21:29;;;;;;;1.38;0.80;;;;;;;10.14;39.09;102048.88;10522053;28;20036;-75
2023/04/05 14:26:30;;;;;;;4.63;0.90;;;;;;;10.10;38.89;102041.75;10522862;28;20039;-75
2023/04/05 14:31:32;;;;;;;1.90;0.93;;;;;;;10.29;39.07;102043.34;10523607;28;20266;-74
2023/04/05 14:36:34;;;;;;;2.28;1.00;;;;;;;10.76;39.17;102027.66;10504665;28;20040;-74
2023/04/05 14:41:36;;;;;;;3.17;1.00;;;;;;;10.83;38.61;102034.03;10469142;28;20051;-75
2023/04/05 14:46:37;;;;;;;2.95;1.00;;;;;;;10.49;38.36;102024.91;10507265;28;20032;-75
2023/04/05 14:51:39;;;;;;;2.78;1.00;;;;;;;10.45;38.37;102018.69;10527927;28;20055;-75
2023/04/05 14:56:41;;;;;;;2.40;0.90;;;;;;;10.93;38.56;102021.31;10505066;28;20040;-75
2023/04/05 15:01:44;;;;;;;2.35;0.98;;;;;;;11.27;38.13;102018.94;10505117;28;20560;-75
2023/04/05 15:06:46;;;;;;;3.72;1.15;;;;;;;10.94;37.68;102004.75;10520416;28;20497;-75
2023/04/05 15:11:47;;;;;;;3.45;1.48;;;;;;;11.36;38.10;102000.88;10519382;28;20032;-75
2023/04/05 15:16:49;;;;;;;2.22;1.20;;;;;;;11.23;37.82;101993.44;10525959;28;20407;-75
2023/04/05 15:21:50;;;;;;;1.10;0.85;;;;;;;11.10;37.40;101990.41;10531958;28;20040;-76
2023/04/05 15:26:52;;;;;;;4.15;1.30;;;;;;;11.11;37.59;101992.22;10555413;28;20043;-75
2023/04/05 15:31:54;;;;;;;2.88;1.40;;;;;;;10.93;37.62;101989.84;10533242;28;20048;-75
2023/04/05 15:36:55;;;;;;;3.55;1.02;;;;;;;11.12;37.75;101988.75;10566713;27;20058;-75
2023/04/05 15:41:57;;;;;;;1.83;0.80;;;;;;;11.10;37.61;101984.31;10540943;28;20048;-75
2023/04/05 15:46:59;;;;;;;3.17;1.30;;;;;;;10.94;37.75;101975.91;10551090;28;20476;-74
2023/04/05 15:52:00;;;;;;;2.50;1.30;;;;;;;10.87;38.05;101976.53;10544962;28;20067;-75
2023/04/05 15:57:02;;;;;;;1.85;1.08;;;;;;;10.88;37.75;101966.94;10531823;27;20043;-75
2023/04/05 16:02:04;;;;;;;3.50;1.10;;;;;;;10.72;37.90;101968.13;10544593;28;20043;-74
2023/04/05 16:07:07;;;;;;;1.75;0.95;;;;;;;10.71;38.17;101966.34;10561631;28;20040;-74
2023/04/05 16:12:09;;;;;;;4.22;1.65;;;;;;;10.51;38.09;101963.00;10537658;28;20040;-74
2023/04/05 16:17:11;;;;;;;2.78;1.30;;;;;;;10.65;38.17;101961.78;10553213;28;20046;-75
2023/04/05 16:22:13;;;;;;;3.05;1.30;;;;;;;10.36;38.26;101953.78;10547237;28;20153;-74
2023/04/05 16:27:15;;;;;;;2.15;1.00;;;;;;;10.33;38.36;101953.66;10543458;28;20384;-74
2023/04/05 16:32:17;;;;;;;2.13;1.25;;;;;;;10.33;38.36;101953.66;10564889;28;20051;-75
2023/04/05 16:37:19;;;;;;;1.75;1.05;;;;;;;10.33;38.54;101951.06;10536921;28;20075;-73
2023/04/05 16:42:21;;;;;;;2.83;1.27;;;;;;;9.71;40.36;101953.94;10540930;27;20058;-74
2023/04/05 16:47:23;;;;;;;3.80;1.30;;;;;;;9.19;42.82;101941.38;10552755;27;20488;-74
2023/04/05 16:52:24;;;;;;;3.13;1.63;;;;;;;9.34;44.58;101934.16;10536561;28;20040;-75
2023/04/05 16:57:26;;;;;;;3.03;1.40;;;;;;;9.07;45.50;101946.06;10526465;28;20711;-75
2023/04/05 17:02:27;;;;;;;3.28;1.38;;;;;;;8.81;46.62;101941.53;10533388;27;20054;-74
2023/04/05 17:07:29;;;;;;;4.05;1.60;;;;;;;8.81;46.62;101941.53;10544837;27;20040;-75
2023/04/05 17:12:32;;;;;;;3.67;1.55;;;;;;;8.27;48.95;101936.56;10517235;27;20047;-74
2023/04/05 17:17:34;;;;;;;2.75;1.40;;;;;;;7.94;49.88;101931.59;10536827;27;20040;-75
2023/04/05 17:22:36;;;;;;;4.25;1.67;;;;;;;7.87;50.54;101937.34;10525272;28;20056;-75
2023/04/05 17:27:37;;;;;;;3.70;1.40;;;;;;;7.76;51.26;101935.94;10507375;28;20051;-74
2023/04/05 17:32:39;;;;;;;1.75;0.98;;;;;;;7.56;51.56;101933.25;10528816;28;20063;-74
2023/04/05 17:37:40;;;;;;;3.22;1.50;;;;;;;7.39;52.23;101928.97;10525183;28;20470;-74
2023/04/05 17:42:42;;;;;;;;;;;;;;;7.28;52.79;101931.06;10525085;28;20329;-76
2023/04/05 17:47:44;;;;;;;4.13;1.52;;;;;;;7.06;53.43;101940.41;10506416;28;20464;-75
2023/04/05 17:52:46;;;;;;;2.63;1.08;;;;;;;6.90;54.04;101936.16;10522722;28;20060;-73
2023/04/05 17:57:47;;;;;;;3.05;1.27;;;;;;;6.70;54.74;101939.47;10521411;28;20036;-74
2023/04/05 18:02:49;;;;;;;4.80;1.50;;;;;;;6.52;55.49;101932.47;10520798;28;20500;-74
2023/04/05 18:07:52;;;;;;;3.05;1.73;;;;;;;6.42;56.12;101938.00;10535001;28;20040;-73
2023/04/05 18:12:53;;;;;;;3.67;1.50;;;;;;;6.36;56.75;101937.69;10540800;27;20423;-73
2023/04/05 18:17:55;;;;;;;2.72;1.38;;;;;;;6.27;57.13;101945.91;10538441;28;20040;-72
2023/04/05 18:23:00;;;;;;;1.17;0.90;;;;;;;6.17;57.75;101936.72;10529675;27;20040;-72
2023/04/05 18:28:02;;;;;;;1.85;0.93;;;;;;;6.07;58.23;101952.66;10518036;27;20047;-72
2023/04/05 18:33:17;;;;;;;6.40;2.00;;;;;;;5.92;58.60;101957.88;10540060;27;20575;-73
2023/04/05 18:38:19;;;;;;;4.72;2.05;;;;;;;5.81;59.15;101957.28;10543770;27;20051;-73
2023/04/05 18:43:20;;;;;;;6.13;2.17;;;;;;;5.69;59.73;101955.69;10524853;28;20046;-73
2023/04/05 18:48:23;;;;;;;2.75;1.48;;;;;;;5.56;60.06;101965.41;10543869;28;20140;-73
2023/04/05 18:53:25;;;;;;;3.53;1.88;;;;;;;5.40;60.63;101955.84;10558980;27;20036;-73
2023/04/05 18:58:27;;;;;;;5.60;1.73;;;;;;;5.28;61.26;101968.13;10518678;27;20051;-72
2023/04/05 19:03:28;;;;;;;2.88;1.50;;;;;;;5.17;61.66;101964.03;10547320;28;20396;-73
2023/04/05 19:08:30;;;;;;;5.00;1.55;;;;;;;5.06;62.22;101972.09;10547812;28;20572;-73
2023/04/05 19:13:32;;;;;;;8.27;1.90;;;;;;;4.92;62.72;101976.50;10548160;28;20152;-72
2023/04/05 19:18:33;;;;;;;3.30;1.27;;;;;;;4.80;63.50;101980.94;10520467;28;20726;-73
2023/04/05 19:23:35;;;;;;;2.03;1.23;;;;;;;4.67;64.23;101978.41;10542715;28;20043;-72
2023/04/05 19:28:37;;;;;;;4.95;1.63;;;;;;;4.58;64.79;101976.16;10548535;28;20055;-72
2023/04/05 19:33:39;;;;;;;5.13;1.52;;;;;;;4.49;65.17;101970.41;10538601;28;20043;-73
2023/04/05 19:38:40;;;;;;;2.72;1.65;;;;;;;4.37;65.78;101976.66;10535654;28;20037;-72
2023/04/05 19:43:42;;;;;;;3.88;1.77;;;;;;;4.28;66.29;101963.13;10528648;28;20532;-72
2023/04/05 19:48:44;;;;;;;3.53;1.58;;;;;;;4.20;67.00;101970.44;10516371;28;20526;-72
2023/04/05 19:53:49;;;;;;;2.38;1.35;;;;;;;4.11;67.50;101966.34;10541867;28;20043;-73
2023/04/05 19:59:22;;;;;;;3.15;1.40;;;;;;;4.05;68.05;101962.59;10536733;28;20043;-72
2023/04/05 20:04:24;;;;;;;7.75;2.75;;;;;;;3.94;68.47;101971.38;10509555;28;20040;-72
2023/04/05 20:09:30;;;;;;;7.85;3.92;;;;;;;3.86;69.02;101970.03;10532381;28;20407;-72
2023/04/05 20:14:40;;;;;;;6.95;2.63;;;;;;;3.80;69.20;101964.41;10529254;28;20044;-72
2023/04/05 20:19:56;;;;;;;2.78;1.80;;;;;;;3.77;69.50;101961.63;10531486;28;20036;-72
2023/04/05 20:24:58;;;;;;;3.30;1.63;;;;;;;3.68;70.24;101960.25;10557108;28;20040;-73
2023/04/05 20:29:59;;;;;;;3.03;1.50;;;;;;;3.60;70.40;101958.88;10525834;28;20043;-72
2023/04/05 20:35:01;;;;;;;1.80;1.27;;;;;;;3.54;70.80;101963.66;10542007;28;20106;-72
2023/04/05 20:40:02;;;;;;;3.55;2.17;;;;;;;3.49;71.40;101959.88;10545354;27;20078;-73
2023/04/05 20:45:07;;;;;;;3.03;1.83;;;;;;;3.41;71.73;101953.28;10544405;28;20134;-73
2023/04/05 20:50:11;;;;;;;2.75;1.58;;;;;;;3.30;72.02;101958.69;10542981;28;20044;-72
2023/04/05 20:55:12;;;;;;;1.58;1.10;;;;;;;3.23;72.45;101955.59;10535282;28;20044;-72
2023/04/05 21:00:15;;;;;;;2.97;1.50;;;;;;;3.14;72.72;101948.13;10543549;28;20055;-72
2023/04/05 21:05:16;;;;;;;1.73;0.98;;;;;;;3.07;72.93;101949.41;10550713;28;20060;-72
2023/04/05 21:10:20;;;;;;;2.83;1.83;;;;;;;2.97;73.15;101955.69;10526032;28;20055;-72
2023/04/05 21:15:22;;;;;;;6.95;1.80;;;;;;;2.92;73.37;101946.69;10534229;28;20040;-73
2023/04/05 21:20:23;;;;;;;1.35;0.90;;;;;;;2.86;73.81;101942.81;10551886;28;20141;-72
2023/04/05 21:25:25;;;;;;;1.85;1.55;;;;;;;2.76;73.68;101937.03;10545743;28;20043;-72
2023/04/05 21:30:27;;;;;;;3.42;2.00;;;;;;;2.68;74.25;101932.13;10538446;28;20032;-72
2023/04/05 21:35:29;;;;;;;3.28;1.52;;;;;;;2.60;73.87;101932.50;10528511;28;20043;-73
2023/04/05 21:40:31;;;;;;;1.50;1.17;;;;;;;2.49;73.99;101938.63;10563831;27;20040;-73
2023/04/05 21:45:32;;;;;;;1.30;0.85;;;;;;;2.38;74.49;101921.50;10564750;28;20051;-72
2023/04/05 21:50:34;;;;;;;4.35;1.38;;;;;;;2.26;74.53;101927.59;10541176;28;20487;-72
2023/04/05 21:55:36;;;;;;;1.42;0.95;;;;;;;2.09;74.23;101930.72;10535860;28;20036;-72
2023/04/05 22:00:37;;;;;;;1.17;0.77;;;;;;;1.90;74.81;101924.25;10540893;28;20403;-72
2023/04/05 22:05:39;;;;;;;2.40;0.93;;;;;;;1.78;75.18;101920.81;10533863;28;20123;-72
2023/04/05 22:10:41;;;;;;;2.80;1.40;;;;;;;1.70;75.37;101914.22;10538685;28;20055;-72
2023/04/05 22:15:43;;;;;;;0.95;0.93;;;;;;;1.59;75.53;101911.75;10545330;28;20038;-72
2023/04/05 22:20:44;;;;;;;0.80;0.73;;;;;;;1.53;75.53;101901.00;10556441;28;20043;-72
2023/04/05 22:25:46;;;;;;;1.58;1.38;;;;;;;1.39;75.68;101899.09;10556265;28;20058;-72
2023/04/05 22:30:48;;;;;;;1.77;0.85;;;;;;;1.30;76.00;101888.13;10541216;28;20070;-72
2023/04/05 22:35:50;;;;;;;3.00;1.40;;;;;;;1.21;76.59;101893.50;10531233;28;20392;-72
2023/04/05 22:40:52;;;;;;;1.60;1.08;;;;;;;1.04;76.40;101893.19;10531665;28;20084;-72
2023/04/05 22:45:53;;;;;;;1.85;0.93;;;;;;;0.98;76.57;101891.84;10529759;28;20105;-72
2023/04/05 22:50:56;;;;;;;0.63;0.47;;;;;;;0.92;76.96;101884.53;10521006;28;20083;-72
2023/04/05 22:55:57;;;;;;;2.35;1.33;;;;;;;0.84;77.41;101877.91;10531041;28;20044;-72
2023/04/05 23:01:00;;;;;;;1.02;0.93;;;;;;;0.69;77.54;101873.44;10530175;28;20415;-71
2023/04/05 23:06:02;;;;;;;0.70;0.57;;;;;;;0.62;77.38;101875.44;10528698;28;20047;-72
2023/04/05 23:11:03;;;;;;;1.55;0.93;;;;;;;0.56;78.00;101874.97;10521669;28;20040;-72
2023/04/05 23:16:05;;;;;;;3.10;1.30;;;;;;;0.46;77.63;101869.13;10535980;28;20556;-73
2023/04/05 23:21:07;;;;;;;0.45;0.45;;;;;;;0.40;78.19;101871.22;10537470;28;20118;-72
2023/04/05 23:26:08;;;;;;;1.13;0.82;;;;;;;0.33;78.10;101861.25;10519553;28;20043;-72